createdAt,value
2018-09-26T00:00:05.896Z,7.3
2018-09-26T00:05:08.070Z,7.2
2018-09-26T00:10:10.385Z,7.2
2018-09-26T00:15:12.746Z,7
2018-09-26T00:20:14.931Z,6.9
2018-09-26T00:25:17.254Z,6.8
2018-09-26T00:30:19.620Z,6.5
2018-09-26T00:35:21.821Z,6.5
2018-09-26T00:40:24.142Z,6.4
2018-09-26T00:45:26.648Z,6.5
2018-09-26T00:50:28.827Z,6.4
2018-09-26T00:55:31.005Z,6.3
2018-09-26T01:00:33.348Z,6.3
2018-09-26T01:05:35.731Z,6.3
2018-09-26T01:10:37.894Z,6.2
2018-09-26T01:15:40.174Z,6.3
2018-09-26T01:20:42.572Z,6.5
2018-09-26T01:25:44.943Z,6.7
2018-09-26T01:30:47.099Z,6.7
2018-09-26T01:35:49.434Z,6.8
2018-09-26T01:40:51.784Z,6.8
2018-09-26T01:45:54.032Z,6.8
2018-09-26T01:50:56.222Z,6.9
2018-09-26T01:55:58.634Z,6.8
2018-09-26T02:01:00.968Z,6.8
2018-09-26T02:06:03.163Z,6.7
2018-09-26T02:11:05.360Z,6.8
2018-09-26T02:16:07.799Z,6.7
2018-09-26T02:21:09.992Z,6.6
2018-09-26T02:26:12.371Z,6.6
2018-09-26T02:31:14.699Z,6.6
2018-09-26T02:36:17.003Z,6.6
2018-09-26T02:41:19.198Z,6.6
2018-09-26T02:46:21.600Z,6.6
2018-09-26T02:51:23.977Z,6.6
2018-09-26T02:56:26.048Z,6.4
2018-09-26T03:01:28.317Z,6.2
2018-09-26T03:06:30.624Z,6.1
2018-09-26T03:11:32.993Z,6.1
2018-09-26T03:16:35.269Z,6.1
2018-09-26T03:21:37.548Z,6.1
2018-09-26T03:26:39.869Z,6
2018-09-26T03:31:42.133Z,5.9
2018-09-26T03:36:44.523Z,5.9
2018-09-26T03:41:46.774Z,6
2018-09-26T03:46:48.965Z,5.8
2018-09-26T03:51:51.348Z,5.8
2018-09-26T03:56:53.615Z,5.7
2018-09-26T04:01:55.910Z,5.6
2018-09-26T04:06:58.131Z,5.5
2018-09-26T04:12:00.572Z,5.5
2018-09-26T04:17:02.821Z,5.5
2018-09-26T04:22:05.098Z,5.4
2018-09-26T04:27:07.416Z,5.3
2018-09-26T04:32:09.870Z,5.3
2018-09-26T04:37:11.925Z,5.3
2018-09-26T04:42:14.250Z,5.2
2018-09-26T04:47:16.560Z,5.2
2018-09-26T04:52:18.912Z,5.2
2018-09-26T04:57:21.152Z,5.1
2018-09-26T05:02:23.361Z,5.1
2018-09-26T05:07:25.799Z,5.1
2018-09-26T05:12:28.015Z,5
2018-09-26T05:17:30.306Z,5
2018-09-26T05:22:32.646Z,4.9
2018-09-26T05:27:35.005Z,4.9
2018-09-26T05:32:37.178Z,4.9
2018-09-26T05:37:39.545Z,4.9
2018-09-26T05:42:41.958Z,4.9
2018-09-26T05:47:44.107Z,4.9
2018-09-26T05:52:46.511Z,4.9
2018-09-26T05:57:48.761Z,5
2018-09-26T06:02:50.998Z,5
2018-09-26T06:07:53.359Z,5.1
2018-09-26T06:12:55.540Z,5.2
2018-09-26T06:17:57.807Z,5.2
2018-09-26T06:23:00.100Z,5.3
2018-09-26T06:28:02.378Z,5.5
2018-09-26T06:33:04.790Z,5.6
2018-09-26T06:38:07.175Z,5.7
2018-09-26T06:43:09.295Z,5.9
2018-09-26T06:48:11.664Z,6
2018-09-26T06:53:13.914Z,6.2
2018-09-26T06:58:16.188Z,6.4
2018-09-26T07:03:18.469Z,6.6
2018-09-26T07:08:20.920Z,6.7
2018-09-26T07:13:22.972Z,6.9
2018-09-26T07:18:25.378Z,7
2018-09-26T07:23:27.635Z,7.2
2018-09-26T07:28:30.043Z,7.3
2018-09-26T07:33:32.233Z,7.5
2018-09-26T07:38:34.792Z,7.6
2018-09-26T07:43:36.867Z,7.7
2018-09-26T07:48:39.169Z,8
2018-09-26T07:53:41.397Z,8.1
2018-09-26T07:58:43.790Z,8.4
2018-09-26T08:03:46.034Z,8.5
2018-09-26T08:08:48.328Z,8.7
2018-09-26T08:13:50.613Z,8.9
2018-09-26T08:18:52.989Z,9
2018-09-26T08:23:55.313Z,9.3
2018-09-26T08:28:57.596Z,9.6
2018-09-26T08:33:59.994Z,9.9
2018-09-26T08:39:02.192Z,10.3
2018-09-26T08:44:04.669Z,10.7
2018-09-26T08:49:06.741Z,11
2018-09-26T08:54:08.924Z,11.2
2018-09-26T08:59:11.347Z,11.5
2018-09-26T09:04:13.571Z,11.8
2018-09-26T09:09:15.836Z,12.1
2018-09-26T09:14:18.266Z,12.2
2018-09-26T09:19:20.407Z,12.4
2018-09-26T09:24:22.732Z,12.5
2018-09-26T09:29:25.049Z,12.6
2018-09-26T09:34:27.351Z,12.9
2018-09-26T09:39:29.602Z,13.3
2018-09-26T09:44:32.010Z,13.5
2018-09-26T09:49:34.244Z,13.8
2018-09-26T09:54:36.533Z,13.9
2018-09-26T09:59:38.788Z,14
2018-09-26T10:04:41.120Z,14.2
2018-09-26T10:09:43.470Z,14.5
2018-09-26T10:14:45.702Z,14.8
2018-09-26T10:19:47.976Z,14.9
2018-09-26T10:24:50.221Z,15.1
2018-09-26T10:29:52.587Z,15.4
2018-09-26T10:34:54.870Z,15.7
2018-09-26T10:39:57.180Z,15.9
2018-09-26T10:44:59.440Z,16.200001
2018-09-26T10:50:01.706Z,16.5
2018-09-26T10:55:04.052Z,16.5
2018-09-26T11:00:06.279Z,16.6
2018-09-26T11:05:08.689Z,16.799999
2018-09-26T11:10:10.978Z,17.4
2018-09-26T11:15:13.211Z,18.299999
2018-09-26T11:20:15.720Z,19.1
2018-09-26T11:25:17.733Z,20
2018-09-26T11:30:20.136Z,20.9
2018-09-26T11:35:22.548Z,21.299999
2018-09-26T11:40:24.756Z,21.700001
2018-09-26T11:45:27.035Z,21.799999
2018-09-26T11:50:29.307Z,22.1
2018-09-26T11:55:31.554Z,22.6
2018-09-26T12:00:33.880Z,23.200001
2018-09-26T12:05:36.126Z,23.4
2018-09-26T12:10:38.419Z,23.200001
2018-09-26T12:15:40.709Z,23.299999
2018-09-26T12:20:43.111Z,23.6
2018-09-26T12:25:45.353Z,23.799999
2018-09-26T12:30:47.641Z,23.700001
2018-09-26T12:35:50.006Z,23.6
2018-09-26T12:40:52.230Z,23.6
2018-09-26T12:45:54.420Z,24
2018-09-26T12:50:56.818Z,23.9
2018-09-26T12:55:59.117Z,24.700001
2018-09-26T13:01:01.354Z,24.799999
2018-09-26T13:06:03.763Z,24.5
2018-09-26T13:11:05.942Z,24.5
2018-09-26T13:16:08.366Z,24.5
2018-09-26T13:21:10.517Z,24.1
2018-09-26T13:26:12.851Z,24.200001
2018-09-26T13:31:15.267Z,24.299999
2018-09-26T13:36:17.386Z,24.200001
2018-09-26T13:41:19.719Z,24
2018-09-26T13:46:22.206Z,23.9
2018-09-26T13:51:24.258Z,24.1
2018-09-26T13:56:26.623Z,23.9
2018-09-26T14:01:29.010Z,23.6
2018-09-26T14:06:31.217Z,23.5
2018-09-26T14:11:33.551Z,23.5
2018-09-26T14:16:35.856Z,23.200001
2018-09-26T14:21:37.979Z,22.9
2018-09-26T14:26:40.354Z,22.5
2018-09-26T14:31:42.669Z,22.299999
2018-09-26T14:36:45.288Z,22.200001
2018-09-26T14:41:47.276Z,21.9
2018-09-26T14:46:49.606Z,21.700001
2018-09-26T14:51:51.968Z,21.4
2018-09-26T14:56:54.259Z,21.200001
2018-09-26T15:01:56.399Z,21.200001
2018-09-26T15:06:58.673Z,21.200001
2018-09-26T15:12:01.081Z,21.4
2018-09-26T15:17:03.359Z,21.5
2018-09-26T15:22:05.614Z,21.700001
2018-09-26T15:27:07.877Z,22
2018-09-26T15:32:10.218Z,22.299999
2018-09-26T15:37:12.489Z,22.799999
2018-09-26T15:42:14.813Z,22.799999
2018-09-26T15:52:19.548Z,23.5
2018-09-26T15:57:21.726Z,23.6
2018-09-26T16:02:24.003Z,23.700001
2018-09-26T16:07:26.530Z,23.1
2018-09-26T16:12:28.536Z,22.9
2018-09-26T16:17:30.803Z,22.9
2018-09-26T16:22:33.130Z,23.1
2018-09-26T16:27:35.522Z,22.5
2018-09-26T16:32:37.769Z,21.1
2018-09-26T16:37:40.151Z,20
2018-09-26T16:42:42.500Z,19.200001
2018-09-26T16:47:44.726Z,18.799999
2018-09-26T16:52:46.921Z,18.5
2018-09-26T16:57:49.217Z,18.1
2018-09-26T17:02:51.583Z,17.799999
2018-09-26T17:07:53.822Z,17.299999
2018-09-26T17:12:56.056Z,16.700001
2018-09-26T17:17:58.506Z,16.200001
2018-09-26T17:23:00.741Z,15.7
2018-09-26T17:28:03.338Z,15.4
2018-09-26T17:33:05.282Z,15.1
2018-09-26T17:38:07.538Z,14.8
2018-09-26T17:43:09.817Z,14.4
2018-09-26T17:48:12.296Z,14.2
2018-09-26T17:53:14.415Z,13.7
2018-09-26T17:58:16.833Z,13.4
2018-09-26T18:03:19.031Z,13.1
2018-09-26T18:08:21.382Z,13
2018-09-26T18:13:23.588Z,12.7
2018-09-26T18:18:25.938Z,12.5
2018-09-26T18:23:28.299Z,12.2
2018-09-26T18:28:30.677Z,12
2018-09-26T18:33:32.843Z,11.7
2018-09-26T18:38:35.082Z,11.6
2018-09-26T18:43:37.435Z,11.5
2018-09-26T18:48:39.719Z,11.6
2018-09-26T18:53:42.104Z,11.4
2018-09-26T18:58:44.300Z,11.3
2018-09-26T19:03:46.507Z,11
2018-09-26T19:08:49.016Z,11
2018-09-26T19:13:51.137Z,10.8
2018-09-26T19:18:53.481Z,10.7
2018-09-26T19:23:55.796Z,10.8
2018-09-26T19:28:57.996Z,10.6
2018-09-26T19:34:00.333Z,10.5
2018-09-26T19:39:02.763Z,10.5
2018-09-26T19:44:04.914Z,10.4
2018-09-26T19:49:07.172Z,10.2
2018-09-26T19:54:09.558Z,10.1
2018-09-26T19:59:11.836Z,10
2018-09-26T20:04:14.106Z,9.8
2018-09-26T20:09:16.419Z,9.8
2018-09-26T20:14:18.665Z,9.7
2018-09-26T20:19:20.991Z,9.6
2018-09-26T20:24:23.226Z,9.5
2018-09-26T20:29:25.802Z,9.5
2018-09-26T20:34:27.817Z,9.4
2018-09-26T20:39:30.155Z,9.3
2018-09-26T20:44:32.879Z,9.2
2018-09-26T20:49:34.758Z,9.1
2018-09-26T20:54:37.081Z,9
2018-09-26T20:59:39.330Z,9
2018-09-26T21:04:41.665Z,9
2018-09-26T21:09:43.823Z,9.1
2018-09-26T21:14:46.279Z,9.2
2018-09-26T21:19:48.581Z,9.2
2018-09-26T21:24:50.972Z,9.2
2018-09-26T21:29:53.122Z,9.2
2018-09-26T21:34:55.423Z,9.1
2018-09-26T21:39:57.619Z,9.1
2018-09-26T21:45:00.048Z,9
2018-09-26T21:50:02.632Z,9
2018-09-26T21:55:04.621Z,8.9
2018-09-26T22:00:07.000Z,8.9
2018-09-26T22:05:09.117Z,8.8
2018-09-26T22:10:11.395Z,8.8
2018-09-26T22:15:13.653Z,8.7
2018-09-26T22:20:15.961Z,8.6
2018-09-26T22:25:18.237Z,8.4
2018-09-26T22:30:20.664Z,8.4
2018-09-26T22:35:22.901Z,8.3
2018-09-26T22:45:27.498Z,8.3
2018-09-26T22:50:29.803Z,8.3
2018-09-26T22:55:32.063Z,8.4
2018-09-26T23:00:34.283Z,8.5
2018-09-26T23:05:36.644Z,8.5
2018-09-26T23:10:39.671Z,8.5
2018-09-26T23:15:41.382Z,8.4
2018-09-26T23:20:43.562Z,8.3
2018-09-26T23:25:45.909Z,8.3
2018-09-26T23:30:48.127Z,8.2
2018-09-26T23:35:50.466Z,8.2
2018-09-26T23:40:52.746Z,8.2
2018-09-26T23:45:54.982Z,8.1
2018-09-26T23:50:57.299Z,8.1
2018-09-26T23:55:59.665Z,7.9
